Time;durP1;ratioP1;P1;durP2;ratioP2;P2;SDS_P1;SDS_P2;PMS_P1;PMS_P2;Temp;Humidity;BMP_temperature;BMP_pressure;BME280_temperature;BME280_humidity;BME280_pressure;Samples;Min_cycle;Max_cycle;Signal;HPM_P1;HPM_P2
2024/01/22 00:00:41;;;;;;;;;3.00;3.00;;;;;7.54;76.51;99564.72;5075968;28;8816;-60
2024/01/22 00:03:09;;;;;;;;;1.00;1.00;;;;;7.54;76.16;99528.50;5074843;28;8951;-59
2024/01/22 00:05:37;;;;;;;;;3.50;1.00;;;;;7.56;75.97;99521.28;5075724;28;8835;-60
2024/01/22 00:08:05;;;;;;;;;0.00;0.00;;;;;7.61;76.31;99531.53;5075783;28;8970;-61
2024/01/22 00:10:33;;;;;;;;;3.00;1.00;;;;;7.65;76.77;99498.56;5075543;28;8866;-59
2024/01/22 00:13:01;;;;;;;;;1.00;1.00;;;;;7.65;75.98;99510.00;5084958;28;9464;-59
2024/01/22 00:15:29;;;;;;;;;2.50;2.50;;;;;7.66;76.40;99502.91;5095832;28;8810;-58
2024/01/22 00:17:57;;;;;;;;;2.50;1.00;;;;;7.65;76.16;99494.09;5095687;28;8846;-58
2024/01/22 00:20:25;;;;;;;;;0.00;0.00;;;;;7.66;76.45;99479.88;5075581;28;8851;-59
2024/01/22 00:22:52;;;;;;;;;1.00;1.00;;;;;7.68;76.88;99474.47;5093493;28;8846;-59
2024/01/22 00:25:20;;;;;;;;;3.25;1.00;;;;;7.68;75.97;99484.13;5095676;28;8834;-57
2024/01/22 00:27:48;;;;;;;;;1.00;1.00;;;;;7.70;76.49;99499.91;5100334;28;8940;-59
2024/01/22 00:30:16;;;;;;;;;3.50;3.00;;;;;7.71;76.66;99469.78;5112426;28;8835;-60
2024/01/22 00:32:45;;;;;;;;;1.00;1.00;;;;;7.72;76.56;99452.94;5099459;28;8932;-60
2024/01/22 00:35:15;;;;;;;;;0.25;0.25;;;;;7.72;76.56;99452.09;5121558;28;8832;-60
2024/01/22 00:37:44;;;;;;;;;1.00;0.75;;;;;7.72;76.28;99457.41;5120766;28;8852;-58
2024/01/22 00:40:12;;;;;;;;;3.00;1.50;;;;;7.71;76.44;99440.66;5115383;28;8850;-60
2024/01/22 00:42:39;;;;;;;;;0.50;0.25;;;;;7.72;76.66;99441.50;5115856;28;8808;-59
2024/01/22 00:45:07;;;;;;;;;1.00;0.50;;;;;7.74;76.08;99420.06;5103990;28;8932;-59
2024/01/22 00:47:35;;;;;;;;;3.00;3.00;;;;;7.75;76.47;99427.03;5088624;28;8840;-59
2024/01/22 00:50:03;;;;;;;;;0.00;0.00;;;;;7.75;76.57;99413.78;5074367;28;8911;-60
2024/01/22 00:52:31;;;;;;;;;3.00;1.00;;;;;7.76;76.26;99404.88;5074287;28;8909;-59
2024/01/22 00:54:58;;;;;;;;;2.50;1.00;;;;;7.77;76.47;99411.84;5074655;28;8828;-59
2024/01/22 00:57:27;;;;;;;;;1.00;1.00;;;;;7.80;76.47;99397.53;5075169;28;8824;-61
2024/01/22 00:59:54;;;;;;;;;1.50;1.50;;;;;7.81;76.60;99359.47;5075079;28;8962;-59
2024/01/22 01:02:22;;;;;;;;;1.50;1.00;;;;;7.83;76.58;99360.22;5074984;28;8963;-60
2024/01/22 01:04:50;;;;;;;;;1.00;0.00;;;;;7.84;76.41;99360.06;5075921;28;8812;-59
2024/01/22 01:07:17;;;;;;;;;1.50;0.25;;;;;7.87;76.54;99373.09;5075001;28;8809;-59
2024/01/22 01:09:45;;;;;;;;;2.50;1.00;;;;;7.90;76.93;99380.81;5074971;28;8812;-58
2024/01/22 01:12:13;;;;;;;;;2.50;2.50;;;;;7.91;76.69;99355.97;5074627;28;8816;-59
2024/01/22 01:14:41;;;;;;;;;3.00;3.00;;;;;7.93;76.80;99369.97;5076244;28;8835;-59
2024/01/22 01:17:08;;;;;;;;;1.00;1.00;;;;;7.94;76.49;99342.50;5078592;28;8851;-59
2024/01/22 01:19:36;;;;;;;;;2.50;2.00;;;;;7.94;76.51;99339.00;5078475;28;8828;-58
2024/01/22 01:22:04;;;;;;;;;0.75;0.75;;;;;7.96;76.69;99322.00;5092051;28;8810;-60
2024/01/22 01:24:32;;;;;;;;;2.00;2.00;;;;;7.96;76.78;99315.84;5098967;28;9756;-59
2024/01/22 01:26:59;;;;;;;;;1.00;0.75;;;;;7.96;76.49;99302.59;5098227;28;8837;-59
2024/01/22 01:29:27;;;;;;;;;3.00;1.00;;;;;7.97;76.39;99313.09;5097246;28;8802;-60
2024/01/22 01:31:55;;;;;;;;;1.00;1.00;;;;;7.99;76.81;99292.59;5097141;28;8843;-58
2024/01/22 01:34:22;;;;;;;;;1.50;1.50;;;;;8.00;76.88;99283.69;5098153;28;8817;-58
2024/01/22 01:36:50;;;;;;;;;1.00;1.00;;;;;8.03;76.67;99278.16;5097669;28;8834;-58
2024/01/22 01:39:18;;;;;;;;;2.50;1.00;;;;;8.05;76.66;99272.72;5097882;28;8834;-58
2024/01/22 01:41:46;;;;;;;;;1.50;1.00;;;;;8.04;76.38;99279.81;5098768;28;8817;-58
2024/01/22 01:44:14;;;;;;;;;1.00;0.50;;;;;8.03;77.03;99256.06;5098157;28;9564;-59
2024/01/22 01:46:41;;;;;;;;;2.00;2.00;;;;;8.04;76.52;99255.13;5098586;28;8849;-60
2024/01/22 01:49:09;;;;;;;;;0.00;0.00;;;;;8.06;76.60;99263.81;5097898;28;8842;-60
2024/01/22 01:51:37;;;;;;;;;1.00;0.00;;;;;8.09;76.86;99267.06;5098641;28;8820;-58
2024/01/22 01:54:05;;;;;;;;;3.00;3.00;;;;;8.12;76.58;99250.88;5098114;28;8837;-59
2024/01/22 01:56:33;;;;;;;;;3.00;1.00;;;;;8.17;76.59;99237.25;5094328;28;8830;-59
2024/01/22 01:59:00;;;;;;;;;0.25;0.25;;;;;8.19;76.46;99238.84;5097268;28;8910;-61
2024/01/22 02:01:28;;;;;;;;;0.25;0.25;;;;;8.21;76.47;99217.53;5100770;28;8818;-60
2024/01/22 02:03:56;;;;;;;;;1.00;0.50;;;;;8.21;76.40;99250.16;5097803;28;8833;-58
2024/01/22 02:06:24;;;;;;;;;1.00;0.25;;;;;8.22;76.67;99243.91;5103102;28;8887;-60
2024/01/22 02:08:52;;;;;;;;;1.00;1.00;;;;;8.24;76.34;99218.13;5118239;28;8916;-60
2024/01/22 02:11:20;;;;;;;;;0.00;0.00;;;;;8.27;76.31;99239.06;5108541;28;8818;-60
2024/01/22 02:13:47;;;;;;;;;0.75;0.75;;;;;8.29;76.44;99233.66;5080416;28;8839;-60
2024/01/22 02:16:15;;;;;;;;;0.25;0.25;;;;;8.32;76.11;99251.94;5077091;28;9516;-59
2024/01/22 02:18:43;;;;;;;;;0.00;0.00;;;;;8.37;76.14;99231.22;5077392;28;8974;-60
2024/01/22 02:21:10;;;;;;;;;1.00;1.00;;;;;8.36;75.95;99262.19;5076903;28;8846;-61
2024/01/22 02:23:39;;;;;;;;;0.75;0.75;;;;;8.40;76.40;99245.06;5096829;28;8922;-61
2024/01/22 02:26:08;;;;;;;;;2.50;1.00;;;;;8.45;75.89;99264.09;5117099;28;8812;-59
2024/01/22 02:28:35;;;;;;;;;0.50;0.50;;;;;8.46;76.29;99214.53;5118232;28;8930;-60
2024/01/22 02:31:03;;;;;;;;;0.25;0.25;;;;;8.46;76.06;99228.66;5078800;28;8843;-60
2024/01/22 02:33:31;;;;;;;;;2.00;2.00;;;;;8.49;76.24;99238.13;5077279;28;8921;-58
2024/01/22 02:35:59;;;;;;;;;0.50;0.50;;;;;8.52;76.29;99249.34;5077086;28;8835;-60
2024/01/22 02:38:26;;;;;;;;;0.75;0.50;;;;;8.54;76.01;99242.13;5077412;28;8812;-58
2024/01/22 02:40:54;;;;;;;;;0.00;0.00;;;;;8.57;75.88;99236.56;5077314;28;8812;-60
2024/01/22 02:43:22;;;;;;;;;1.00;1.00;;;;;8.59;75.98;99202.75;5077329;28;8840;-58
2024/01/22 02:45:49;;;;;;;;;1.00;1.00;;;;;8.58;75.64;99198.44;5077539;28;8820;-59
2024/01/22 02:48:16;;;;;;;;;1.00;1.00;;;;;8.57;75.83;99204.72;5077532;28;8820;-59
2024/01/22 02:50:44;;;;;;;;;2.50;1.00;;;;;8.59;75.86;99191.31;5077037;28;8820;-60
2024/01/22 02:53:12;;;;;;;;;0.25;0.25;;;;;8.58;76.09;99189.66;5076634;28;8816;-59
2024/01/22 02:55:40;;;;;;;;;0.75;0.75;;;;;8.59;75.95;99170.94;5076913;28;8943;-59
2024/01/22 02:58:07;;;;;;;;;0.00;0.00;;;;;8.63;75.75;99156.44;5076639;28;9486;-60
2024/01/22 03:00:35;;;;;;;;;0.00;0.00;;;;;8.62;75.55;99154.75;5089830;28;8902;-60
2024/01/22 03:03:03;;;;;;;;;1.00;1.00;;;;;8.61;75.86;99152.22;5096253;28;8848;-60
2024/01/22 03:05:31;;;;;;;;;1.00;1.00;;;;;8.61;76.11;99146.91;5096352;28;8818;-58
2024/01/22 03:08:00;;;;;;;;;1.00;1.00;;;;;8.60;76.28;99118.72;5096127;28;9462;-60
2024/01/22 03:10:28;;;;;;;;;0.50;0.50;;;;;8.57;75.90;99141.03;5095271;28;8830;-60
2024/01/22 03:12:55;;;;;;;;;0.25;0.25;;;;;8.57;76.26;99103.03;5095726;28;8810;-59
2024/01/22 03:15:23;;;;;;;;;1.00;1.00;;;;;8.57;75.92;99111.00;5096578;28;8873;-59
2024/01/22 03:17:51;;;;;;;;;0.50;0.50;;;;;8.59;76.35;99098.47;5095561;28;8850;-60
2024/01/22 03:20:18;;;;;;;;;0.00;0.00;;;;;8.61;76.03;99115.06;5096361;28;8857;-59
2024/01/22 03:22:46;;;;;;;;;1.00;1.00;;;;;8.62;76.29;99130.88;5100140;28;8829;-59
2024/01/22 03:25:15;;;;;;;;;0.00;0.00;;;;;8.67;75.96;99115.38;5116157;28;8836;-60
2024/01/22 03:27:42;;;;;;;;;0.00;0.00;;;;;8.69;76.39;99134.69;5108111;28;8830;-60
2024/01/22 03:30:10;;;;;;;;;0.00;0.00;;;;;8.73;76.23;99167.94;5095814;28;8834;-58
2024/01/22 03:32:39;;;;;;;;;1.00;1.00;;;;;8.75;75.83;99146.59;5096191;28;8846;-58
2024/01/22 03:35:07;;;;;;;;;0.00;0.00;;;;;8.75;75.58;99157.22;5096276;28;8942;-58
2024/01/22 03:37:34;;;;;;;;;0.00;0.00;;;;;8.79;76.17;99162.13;5088959;28;8820;-60
2024/01/22 03:40:02;;;;;;;;;0.75;0.75;;;;;8.88;76.04;99173.78;5093821;28;8820;-59
2024/01/22 03:42:30;;;;;;;;;1.00;1.00;;;;;8.92;75.85;99162.78;5115796;28;8894;-60
2024/01/22 03:44:57;;;;;;;;;0.00;0.00;;;;;8.98;75.96;99158.75;5116013;28;8832;-60
2024/01/22 03:47:27;;;;;;;;;0.00;0.00;;;;;9.02;75.74;99150.38;5116283;28;9493;-60
2024/01/22 03:49:55;;;;;;;;;0.25;0.00;;;;;9.02;75.24;99126.50;5115667;28;9525;-57
2024/01/22 03:52:22;;;;;;;;;2.00;2.00;;;;;9.04;75.76;99124.53;5115806;28;8812;-59
2024/01/22 03:54:51;;;;;;;;;1.00;1.00;;;;;9.06;75.52;99133.25;5097696;28;8816;-59
2024/01/22 03:57:18;;;;;;;;;0.75;0.75;;;;;9.08;75.83;99117.16;5076157;28;8897;-59
2024/01/22 03:59:48;;;;;;;;;0.50;0.50;;;;;9.08;75.90;99136.59;5076232;28;8847;-58
2024/01/22 04:02:16;;;;;;;;;2.00;0.75;;;;;9.08;75.67;99120.66;5075993;28;8828;-60
2024/01/22 04:04:43;;;;;;;;;1.00;1.00;;;;;9.10;76.12;99121.34;5075771;28;8950;-59
2024/01/22 04:07:12;;;;;;;;;0.75;0.75;;;;;9.14;75.85;99130.75;5075993;28;9527;-59
2024/01/22 04:09:40;;;;;;;;;0.00;0.00;;;;;9.15;76.01;99116.50;5075841;28;8816;-59
2024/01/22 04:12:07;;;;;;;;;0.00;0.00;;;;;9.18;76.13;99110.91;5076449;28;8831;-60
2024/01/22 04:14:35;;;;;;;;;0.00;0.00;;;;;9.20;75.75;99108.13;5075840;28;8870;-60
2024/01/22 04:17:03;;;;;;;;;2.50;2.50;;;;;9.22;75.81;99099.06;5088723;28;8826;-60
2024/01/22 04:19:30;;;;;;;;;0.50;0.50;;;;;9.22;76.01;99112.34;5095969;28;8935;-60
2024/01/22 04:21:58;;;;;;;;;0.25;0.25;;;;;9.09;76.26;99063.91;5095861;28;8940;-60
2024/01/22 04:24:26;;;;;;;;;1.00;1.00;;;;;8.90;76.91;99089.53;5098102;28;8845;-60
2024/01/22 04:26:54;;;;;;;;;0.00;0.00;;;;;8.71;77.42;99066.41;5095346;28;8988;-57
2024/01/22 04:29:21;;;;;;;;;0.50;0.50;;;;;8.54;78.12;99077.63;5094478;28;9729;-59
2024/01/22 04:31:49;;;;;;;;;0.50;0.50;;;;;8.42;78.77;99057.44;5096570;28;8850;-58
2024/01/22 04:34:17;;;;;;;;;0.00;0.00;;;;;8.32;79.71;99066.28;5104269;28;8804;-60
2024/01/22 04:36:45;;;;;;;;;1.00;0.00;;;;;8.22;79.38;99082.13;5116378;28;8872;-60
2024/01/22 04:39:13;;;;;;;;;0.00;0.00;;;;;8.15;79.64;99075.63;5100761;28;8806;-57
2024/01/22 04:41:41;;;;;;;;;0.25;0.00;;;;;8.12;80.00;99069.72;5095430;28;8825;-57
2024/01/22 04:44:08;;;;;;;;;0.25;0.25;;;;;8.07;80.15;99051.56;5095659;28;8826;-57
2024/01/22 04:46:36;;;;;;;;;1.00;0.00;;;;;8.01;80.50;99052.09;5079820;28;8840;-59
2024/01/22 04:49:04;;;;;;;;;3.00;2.00;;;;;7.99;81.62;99069.91;5075344;28;8971;-59
2024/01/22 04:51:32;;;;;;;;;0.00;0.00;;;;;7.97;81.56;99050.66;5110203;28;8826;-59
2024/01/22 04:54:00;;;;;;;;;0.00;0.00;;;;;7.95;81.50;99042.00;5119086;28;8816;-59
2024/01/22 04:56:27;;;;;;;;;0.00;0.00;;;;;7.94;82.08;99044.78;5118857;28;8816;-58
2024/01/22 04:58:55;;;;;;;;;0.50;0.50;;;;;7.91;82.54;99015.88;5119250;28;8812;-58
2024/01/22 05:01:23;;;;;;;;;0.00;0.00;;;;;7.90;82.69;99033.59;5119090;28;8816;-59
2024/01/22 05:03:51;;;;;;;;;0.00;0.00;;;;;7.89;82.79;99018.66;5082510;28;8828;-59
2024/01/22 05:06:19;;;;;;;;;0.00;0.00;;;;;7.90;83.23;99008.91;5078229;28;8828;-57
2024/01/22 05:08:47;;;;;;;;;0.00;0.00;;;;;7.88;83.20;99001.06;5077670;28;8860;-57
2024/01/22 05:11:14;;;;;;;;;0.00;0.00;;;;;7.88;83.26;99008.16;5077624;28;8874;-58
2024/01/22 05:13:42;;;;;;;;;0.00;0.00;;;;;7.88;83.52;99003.72;5077676;28;8828;-56
2024/01/22 05:16:10;;;;;;;;;0.00;0.00;;;;;7.87;83.60;98988.78;5077990;28;8847;-56
2024/01/22 05:18:37;;;;;;;;;1.00;1.00;;;;;7.86;83.77;98995.06;5078018;28;8838;-56
2024/01/22 05:21:05;;;;;;;;;0.00;0.00;;;;;7.88;83.72;99001.06;5097853;28;8818;-57
2024/01/22 05:23:33;;;;;;;;;0.50;0.00;;;;;7.89;84.07;98989.50;5098561;28;8821;-57
2024/01/22 05:26:01;;;;;;;;;0.00;0.00;;;;;7.91;84.40;98997.31;5099061;28;8841;-56
2024/01/22 05:28:28;;;;;;;;;0.00;0.00;;;;;7.91;84.24;98984.91;5098373;28;8821;-56
2024/01/22 05:30:56;;;;;;;;;0.00;0.00;;;;;7.91;84.21;98976.94;5098293;28;8818;-56
2024/01/22 05:33:24;;;;;;;;;0.00;0.00;;;;;7.92;84.46;98989.22;5098563;28;8846;-56
2024/01/22 05:35:52;;;;;;;;;0.00;0.00;;;;;7.94;84.53;98989.09;5097707;28;8826;-56
2024/01/22 05:38:19;;;;;;;;;0.00;0.00;;;;;7.94;84.56;98966.09;5097810;28;8814;-57
2024/01/22 05:40:47;;;;;;;;;0.00;0.00;;;;;7.93;84.43;98959.13;5099207;28;8814;-57
2024/01/22 05:43:15;;;;;;;;;0.00;0.00;;;;;7.93;85.18;98987.44;5101700;28;8856;-58
2024/01/22 05:45:43;;;;;;;;;0.00;0.00;;;;;7.94;84.90;98979.34;5111621;28;8827;-57
2024/01/22 05:48:11;;;;;;;;;0.00;0.00;;;;;7.94;85.18;98976.72;5118374;28;8836;-57
2024/01/22 05:50:39;;;;;;;;;0.00;0.00;;;;;7.93;85.01;98969.72;5098403;28;8936;-57
2024/01/22 05:53:07;;;;;;;;;0.00;0.00;;;;;7.95;85.13;98967.78;5094173;28;8826;-58
2024/01/22 05:55:34;;;;;;;;;0.00;0.00;;;;;7.96;85.20;98963.31;5077497;28;8836;-58
2024/01/22 05:58:02;;;;;;;;;0.00;0.00;;;;;7.96;85.62;98979.22;5077520;28;8840;-56
2024/01/22 06:00:30;;;;;;;;;0.00;0.00;;;;;7.97;85.48;98951.72;5080354;28;8867;-56
2024/01/22 06:02:57;;;;;;;;;0.00;0.00;;;;;7.99;85.44;98966.53;5117647;28;8808;-56
2024/01/22 06:05:26;;;;;;;;;0.00;0.00;;;;;7.99;85.47;98961.22;5117878;28;8800;-58
2024/01/22 06:07:54;;;;;;;;;0.00;0.00;;;;;7.99;85.59;98949.81;5118225;28;8852;-57
2024/01/22 06:10:21;;;;;;;;;0.00;0.00;;;;;7.98;85.97;98983.41;5106794;28;8820;-58
2024/01/22 06:12:49;;;;;;;;;0.00;0.00;;;;;7.99;86.10;98926.78;5076612;28;8828;-58
2024/01/22 06:15:17;;;;;;;;;0.00;0.00;;;;;8.01;85.74;98946.06;5076543;28;8993;-57
2024/01/22 06:17:45;;;;;;;;;0.00;0.00;;;;;8.04;85.58;98929.88;5076702;28;8852;-57
2024/01/22 06:20:12;;;;;;;;;0.00;0.00;;;;;8.05;86.24;98976.63;5076456;28;8843;-58
2024/01/22 06:22:40;;;;;;;;;0.00;0.00;;;;;8.07;86.42;98942.88;5076143;28;8836;-58
2024/01/22 06:25:09;;;;;;;;;0.00;0.00;;;;;8.10;86.50;98960.31;5075377;28;8832;-59
2024/01/22 06:27:37;;;;;;;;;0.00;0.00;;;;;8.10;86.26;98945.28;5075510;28;8840;-58
2024/01/22 06:30:06;;;;;;;;;0.00;0.00;;;;;8.13;86.01;98947.66;5076088;28;8821;-57
2024/01/22 06:32:34;;;;;;;;;0.00;0.00;;;;;8.13;86.55;98942.34;5075740;28;8825;-57
2024/01/22 06:35:02;;;;;;;;;0.00;0.00;;;;;8.15;86.73;98931.63;5075837;28;8828;-58
2024/01/22 06:37:30;;;;;;;;;0.25;0.25;;;;;8.18;86.31;98958.72;5080417;28;8814;-58
2024/01/22 06:40:00;;;;;;;;;0.00;0.00;;;;;8.21;86.29;98936.44;5095212;28;8830;-58
2024/01/22 06:42:29;;;;;;;;;0.00;0.00;;;;;8.23;86.58;98935.34;5093563;28;8972;-58
2024/01/22 06:45:05;;;;;;;;;0.00;0.00;;;;;8.25;86.67;98912.16;5094496;28;8860;-58
2024/01/22 06:47:34;;;;;;;;;0.50;0.00;;;;;8.26;86.24;98929.75;5092840;28;8857;-58
2024/01/22 06:50:03;;;;;;;;;0.00;0.00;;;;;8.29;86.52;98913.56;5095548;28;8826;-57
2024/01/22 06:52:31;;;;;;;;;0.00;0.00;;;;;8.31;86.66;98906.34;5093932;28;8826;-56
2024/01/22 06:55:00;;;;;;;;;0.00;0.00;;;;;8.35;86.27;98907.72;5095034;28;8829;-58
2024/01/22 06:57:27;;;;;;;;;0.00;0.00;;;;;8.43;86.07;98923.81;5095615;28;8818;-58
2024/01/22 06:59:55;;;;;;;;;0.00;0.00;;;;;8.54;86.31;98923.75;5095752;28;8834;-56
2024/01/22 07:02:26;;;;;;;;;0.00;0.00;;;;;8.66;85.79;98917.34;5094689;28;9269;-57
2024/01/22 07:04:55;;;;;;;;;0.00;0.00;;;;;8.76;85.62;98960.69;5095312;28;8903;-58
2024/01/22 07:07:24;;;;;;;;;0.00;0.00;;;;;8.82;85.90;98922.13;5094427;28;8826;-58
2024/01/22 07:09:54;;;;;;;;;0.00;0.00;;;;;8.83;85.54;98939.75;5094497;28;8822;-58
2024/01/22 07:12:21;;;;;;;;;0.00;0.00;;;;;8.88;85.64;98930.38;5097243;28;8937;-58
2024/01/22 07:14:49;;;;;;;;;0.00;0.00;;;;;8.94;85.28;98931.66;5073957;28;8820;-58
2024/01/22 07:17:17;;;;;;;;;0.00;0.00;;;;;8.94;85.51;98921.88;5088318;28;8839;-57
2024/01/22 07:19:45;;;;;;;;;0.00;0.00;;;;;8.89;85.53;98917.97;5080221;28;8834;-59
2024/01/22 07:22:13;;;;;;;;;0.00;0.00;;;;;8.85;85.53;98929.81;5075545;28;8832;-59
2024/01/22 07:24:41;;;;;;;;;0.00;0.00;;;;;8.81;85.58;98931.91;5074908;28;8974;-58
2024/01/22 07:27:08;;;;;;;;;0.00;0.00;;;;;8.77;85.88;98940.28;5074038;28;8973;-56
2024/01/22 07:29:36;;;;;;;;;0.00;0.00;;;;;8.75;85.98;98924.47;5091357;28;8824;-56
2024/01/22 07:32:04;;;;;;;;;0.00;0.00;;;;;8.73;86.23;98950.31;5115492;28;8812;-58
2024/01/22 07:34:32;;;;;;;;;0.00;0.00;;;;;8.71;86.21;98935.50;5116142;28;8853;-57
2024/01/22 07:37:00;;;;;;;;;0.00;0.00;;;;;8.70;86.03;98939.13;5076797;28;8867;-57
2024/01/22 07:39:28;;;;;;;;;0.00;0.00;;;;;8.68;86.38;98957.84;5075299;28;8824;-59
2024/01/22 07:41:55;;;;;;;;;0.00;0.00;;;;;8.66;86.70;98957.13;5075232;28;8828;-58
2024/01/22 07:44:23;;;;;;;;;0.00;0.00;;;;;8.66;86.67;98943.88;5074806;28;8828;-56
2024/01/22 07:46:51;;;;;;;;;0.00;0.00;;;;;8.65;86.69;98976.69;5074027;28;9023;-59
2024/01/22 07:49:19;;;;;;;;;0.00;0.00;;;;;8.65;86.88;98952.81;5073528;28;8844;-58
2024/01/22 07:51:47;;;;;;;;;0.00;0.00;;;;;8.67;87.03;98955.34;5074383;28;8836;-58
2024/01/22 07:54:15;;;;;;;;;0.00;0.00;;;;;8.69;87.01;98945.41;5073090;28;8828;-57
2024/01/22 07:56:43;;;;;;;;;0.00;0.00;;;;;8.70;87.38;98966.53;5073724;28;9767;-58
2024/01/22 07:59:12;;;;;;;;;0.00;0.00;;;;;8.76;87.15;98955.38;5072756;28;8973;-59
2024/01/22 08:01:39;;;;;;;;;0.00;0.00;;;;;8.85;87.13;98965.19;5073189;28;8846;-59
2024/01/22 08:04:07;;;;;;;;;0.00;0.00;;;;;8.96;86.72;98967.72;5073497;28;8836;-58
2024/01/22 08:06:35;;;;;;;;;0.00;0.00;;;;;9.09;86.75;98968.31;5085943;28;8857;-58
2024/01/22 08:09:03;;;;;;;;;0.00;0.00;;;;;9.20;86.11;98977.97;5092553;28;9479;-58
2024/01/22 08:11:31;;;;;;;;;0.00;0.00;;;;;9.30;85.74;98992.97;5094343;28;8826;-58
2024/01/22 08:13:59;;;;;;;;;0.00;0.00;;;;;9.38;85.33;98985.13;5090234;28;8845;-59
2024/01/22 08:16:27;;;;;;;;;0.00;0.00;;;;;9.47;84.99;98994.06;5087992;28;8870;-58
2024/01/22 08:18:55;;;;;;;;;0.00;0.00;;;;;9.49;84.62;98998.28;5094479;28;8854;-58
2024/01/22 08:21:23;;;;;;;;;0.00;0.00;;;;;9.41;85.21;99008.75;5097616;28;8830;-58
2024/01/22 08:23:51;;;;;;;;;0.00;0.00;;;;;9.33;84.95;99013.09;5111733;28;8820;-56
2024/01/22 08:26:18;;;;;;;;;0.00;0.00;;;;;9.26;85.41;99004.81;5116299;28;8804;-57
2024/01/22 08:28:46;;;;;;;;;0.00;0.00;;;;;9.23;85.17;99009.56;5119335;28;8827;-58
2024/01/22 08:31:14;;;;;;;;;0.00;0.00;;;;;9.19;85.72;99016.97;5119544;28;8824;-58
2024/01/22 08:33:42;;;;;;;;;0.00;0.00;;;;;9.15;85.45;99023.53;5118542;28;8951;-56
2024/01/22 08:36:10;;;;;;;;;0.00;0.00;;;;;9.12;85.72;99015.81;5117878;28;8835;-58
2024/01/22 08:38:38;;;;;;;;;0.00;0.00;;;;;9.09;85.69;99024.06;5112445;28;8810;-58
2024/01/22 08:41:08;;;;;;;;;0.00;0.00;;;;;9.10;85.71;99023.09;5096247;28;8838;-59
2024/01/22 08:43:36;;;;;;;;;0.00;0.00;;;;;9.09;85.72;99016.09;5089411;28;9553;-58
2024/01/22 08:46:03;;;;;;;;;0.00;0.00;;;;;9.11;85.85;99030.09;5076910;28;8916;-57
2024/01/22 08:48:31;;;;;;;;;0.00;0.00;;;;;9.14;85.76;99026.31;5076690;28;9667;-57
2024/01/22 08:50:59;;;;;;;;;0.00;0.00;;;;;9.19;85.92;99022.28;5076803;28;8847;-58
2024/01/22 08:53:27;;;;;;;;;0.00;0.00;;;;;9.28;85.42;99028.59;5077002;28;8836;-57
2024/01/22 08:55:55;;;;;;;;;0.00;0.00;;;;;9.37;85.35;99025.13;5077085;28;8828;-58
2024/01/22 08:58:26;;;;;;;;;0.00;0.00;;;;;9.47;84.97;99029.47;5077455;28;8831;-58
2024/01/22 09:00:54;;;;;;;;;0.00;0.00;;;;;9.57;84.54;99016.22;5077238;28;8873;-57
2024/01/22 09:03:24;;;;;;;;;0.00;0.00;;;;;9.63;84.17;99015.66;5077497;28;8917;-58
2024/01/22 09:05:52;;;;;;;;;0.00;0.00;;;;;9.67;84.47;99009.91;5077899;28;8828;-57
2024/01/22 09:08:20;;;;;;;;;0.00;0.00;;;;;9.72;84.37;99007.66;5104727;28;8826;-57
2024/01/22 09:10:49;;;;;;;;;0.00;0.00;;;;;9.78;84.35;99004.47;5104326;28;8841;-56
2024/01/22 09:13:18;;;;;;;;;0.00;0.00;;;;;9.82;83.96;99000.56;5098513;28;8857;-59
2024/01/22 09:15:46;;;;;;;;;0.00;0.00;;;;;9.87;84.02;99006.25;5096961;28;8972;-58
2024/01/22 09:18:14;;;;;;;;;0.00;0.00;;;;;9.86;83.79;98996.63;5095230;28;8926;-58
2024/01/22 09:20:42;;;;;;;;;0.00;0.00;;;;;9.88;83.72;99010.59;5094826;28;8841;-59
2024/01/22 09:23:10;;;;;;;;;0.00;0.00;;;;;9.94;83.91;98999.41;5094496;28;8837;-58
2024/01/22 09:25:40;;;;;;;;;0.00;0.00;;;;;9.99;83.14;98994.50;5095598;28;8836;-58
2024/01/22 09:28:08;;;;;;;;;0.00;0.00;;;;;10.08;83.08;99000.84;5095213;28;8842;-58
2024/01/22 09:30:35;;;;;;;;;0.00;0.00;;;;;10.14;83.26;98987.81;5095660;28;8923;-58
2024/01/22 09:33:05;;;;;;;;;0.00;0.00;;;;;10.23;82.87;98980.81;5095811;28;9471;-58
2024/01/22 09:35:33;;;;;;;;;0.00;0.00;;;;;10.28;83.04;98974.06;5095697;28;8834;-58
2024/01/22 09:38:01;;;;;;;;;0.00;0.00;;;;;10.33;83.03;98976.28;5095621;28;8834;-58
2024/01/22 09:40:29;;;;;;;;;0.50;0.50;;;;;10.35;82.99;98987.63;5095550;28;8952;-58
2024/01/22 09:43:03;;;;;;;;;0.00;0.00;;;;;10.36;82.26;98995.47;5094648;28;8861;-56
2024/01/22 09:45:31;;;;;;;;;0.00;0.00;;;;;10.36;82.81;98999.94;5095464;28;8846;-58
2024/01/22 09:47:58;;;;;;;;;0.00;0.00;;;;;10.33;82.11;98981.59;5094762;28;9519;-57
2024/01/22 09:50:29;;;;;;;;;0.00;0.00;;;;;10.30;82.76;98984.53;5094238;28;8841;-57
2024/01/22 09:52:57;;;;;;;;;0.00;0.00;;;;;10.32;82.39;98988.75;5094270;28;8826;-58
2024/01/22 09:55:25;;;;;;;;;0.25;0.25;;;;;10.32;82.22;98972.78;5094817;28;8857;-58
2024/01/22 09:57:53;;;;;;;;;0.00;0.00;;;;;10.35;82.47;98983.16;5095163;28;8834;-56
2024/01/22 10:00:25;;;;;;;;;0.00;0.00;;;;;10.34;82.39;98981.47;5095139;28;8899;-56
2024/01/22 10:02:55;;;;;;;;;0.00;0.00;;;;;10.34;82.32;98991.25;5094964;28;8852;-57
2024/01/22 10:05:23;;;;;;;;;0.00;0.00;;;;;10.38;82.67;98974.00;5095498;28;8822;-56
2024/01/22 10:07:51;;;;;;;;;0.00;0.00;;;;;10.41;82.55;98982.53;5094789;28;8837;-57
2024/01/22 10:10:20;;;;;;;;;0.25;0.00;;;;;10.45;81.93;98969.78;5095126;28;8910;-56
2024/01/22 10:12:49;;;;;;;;;0.00;0.00;;;;;10.49;82.31;98961.41;5095272;28;8818;-58
2024/01/22 10:15:16;;;;;;;;;0.00;0.00;;;;;10.53;82.04;98959.25;5095274;28;8864;-58
2024/01/22 10:17:44;;;;;;;;;0.00;0.00;;;;;10.54;81.90;98950.31;4961989;28;3799405;-58
2024/01/22 10:20:13;;;;;;;;;0.00;0.00;;;;;10.56;81.75;98956.31;5096074;28;8860;-58
2024/01/22 10:22:41;;;;;;;;;0.00;0.00;;;;;10.59;81.84;98956.00;5097017;28;9718;-56
2024/01/22 10:25:09;;;;;;;;;0.00;0.00;;;;;10.64;81.51;98953.75;5096682;28;8842;-58
2024/01/22 10:27:37;;;;;;;;;0.00;0.00;;;;;10.68;81.48;98958.63;5096513;28;8972;-56
2024/01/22 10:30:04;;;;;;;;;0.00;0.00;;;;;10.71;81.65;98955.66;5096465;28;8826;-56
2024/01/22 10:32:32;;;;;;;;;0.00;0.00;;;;;10.76;81.07;98949.94;5096028;28;8834;-56
2024/01/22 10:35:01;;;;;;;;;0.00;0.00;;;;;10.84;80.78;98947.38;5096069;28;8853;-57
2024/01/22 10:37:29;;;;;;;;;0.00;0.00;;;;;10.88;80.69;98946.91;5096142;28;8829;-58
2024/01/22 10:39:56;;;;;;;;;0.00;0.00;;;;;10.92;80.22;98950.13;5096352;28;8972;-58
2024/01/22 10:42:24;;;;;;;;;0.00;0.00;;;;;10.95;80.63;98950.66;5096276;28;8822;-58
2024/01/22 10:44:52;;;;;;;;;0.00;0.00;;;;;11.01;80.55;98936.72;5095090;28;8826;-58
2024/01/22 10:47:20;;;;;;;;;0.00;0.00;;;;;11.05;79.93;98938.13;5094169;28;8991;-58
2024/01/22 10:49:48;;;;;;;;;0.00;0.00;;;;;11.08;79.89;98950.31;5094756;28;8856;-59
2024/01/22 10:52:18;;;;;;;;;0.00;0.00;;;;;11.09;79.73;98946.66;5094970;28;8822;-58
2024/01/22 10:54:46;;;;;;;;;0.00;0.00;;;;;11.14;80.25;98945.22;5095080;28;8834;-58
2024/01/22 10:57:14;;;;;;;;;0.00;0.00;;;;;11.15;80.21;98925.56;5095634;28;8842;-59
2024/01/22 10:59:42;;;;;;;;;0.00;0.00;;;;;11.17;79.93;98938.75;5094974;28;8830;-57
2024/01/22 11:02:10;;;;;;;;;0.00;0.00;;;;;11.17;79.90;98926.28;5095232;28;9542;-58
2024/01/22 11:04:38;;;;;;;;;1.00;0.00;;;;;11.14;79.44;98929.22;5095339;28;8908;-56
2024/01/22 11:07:06;;;;;;;;;0.00;0.00;;;;;11.14;79.38;98942.53;5095182;28;8850;-57
2024/01/22 11:09:35;;;;;;;;;0.00;0.00;;;;;11.14;79.71;98920.41;5094903;28;8818;-58
2024/01/22 11:12:03;;;;;;;;;1.00;1.00;;;;;11.16;80.05;98926.41;5094432;28;8874;-56
2024/01/22 11:14:31;;;;;;;;;0.00;0.00;;;;;11.18;79.67;98914.63;5095642;28;8830;-56
2024/01/22 11:16:58;;;;;;;;;0.00;0.00;;;;;11.22;79.06;98915.97;5095651;28;8842;-57
2024/01/22 11:19:26;;;;;;;;;0.00;0.00;;;;;11.26;79.82;98913.84;5095794;28;8873;-58
2024/01/22 11:21:55;;;;;;;;;0.00;0.00;;;;;11.28;79.00;98931.38;5095418;28;8821;-57
2024/01/22 11:24:25;;;;;;;;;0.00;0.00;;;;;11.29;79.63;98933.03;5095706;28;8837;-58
2024/01/22 11:26:53;;;;;;;;;0.00;0.00;;;;;11.30;79.17;98926.72;5095650;28;8830;-58
2024/01/22 11:29:22;;;;;;;;;0.00;0.00;;;;;11.30;78.85;98918.72;5095744;28;8818;-57
2024/01/22 11:31:50;;;;;;;;;0.00;0.00;;;;;11.31;78.81;98917.72;5095423;28;8834;-57
2024/01/22 11:34:18;;;;;;;;;0.00;0.00;;;;;11.34;79.01;98922.78;5095211;28;8810;-58
2024/01/22 11:36:46;;;;;;;;;0.00;0.00;;;;;11.36;78.94;98912.78;5095441;28;9471;-58
2024/01/22 11:39:14;;;;;;;;;0.00;0.00;;;;;11.36;78.91;98917.31;5095060;28;8968;-56
2024/01/22 11:41:42;;;;;;;;;0.00;0.00;;;;;11.37;79.19;98918.97;5094015;28;8860;-56
2024/01/22 11:44:10;;;;;;;;;0.00;0.00;;;;;11.39;78.73;98914.31;5095066;28;8848;-57
2024/01/22 11:46:38;;;;;;;;;0.00;0.00;;;;;11.42;78.94;98906.88;5094786;28;8830;-57
2024/01/22 11:49:07;;;;;;;;;0.00;0.00;;;;;11.43;78.43;98903.19;5094631;28;8844;-57
2024/01/22 11:51:35;;;;;;;;;0.00;0.00;;;;;11.42;78.58;98901.53;5093905;28;8856;-57